Time;durP1;ratioP1;P1;durP2;ratioP2;P2;SDS_P1;SDS_P2;PMS_P1;PMS_P2;Temp;Humidity;BMP_temperature;BMP_pressure;BME280_temperature;BME280_humidity;BME280_pressure;Samples;Min_cycle;Max_cycle;Signal;HPM_P1;HPM_P2
2023/08/03 00:01:55;;;;;;;8.90;4.43;;;24.10;99.90;;;;;;5035162;28;20051;-78
2023/08/03 00:04:20;;;;;;;11.05;4.68;;;24.00;99.90;;;;;;5036645;28;20048;-77
2023/08/03 00:06:46;;;;;;;11.93;5.05;;;24.10;99.90;;;;;;5033938;28;20029;-78
2023/08/03 00:09:12;;;;;;;10.25;4.72;;;24.10;99.90;;;;;;5037679;28;20139;-78
2023/08/03 00:11:38;;;;;;;11.55;4.90;;;24.10;99.90;;;;;;5033769;28;20471;-78
2023/08/03 00:14:03;;;;;;;7.63;4.40;;;24.10;99.90;;;;;;5033629;28;20025;-78
2023/08/03 00:16:29;;;;;;;11.95;5.32;;;24.20;99.90;;;;;;5034828;28;20563;-78
2023/08/03 00:18:55;;;;;;;9.40;4.55;;;24.00;99.90;;;;;;5037965;28;20635;-78
2023/08/03 00:21:20;;;;;;;7.85;4.70;;;24.00;99.90;;;;;;5030182;28;20025;-78
2023/08/03 00:23:46;;;;;;;8.23;4.40;;;23.90;99.90;;;;;;5033057;28;20037;-78
2023/08/03 00:26:12;;;;;;;8.15;4.70;;;23.90;99.90;;;;;;5033401;28;20061;-77
2023/08/03 00:28:37;;;;;;;7.55;4.60;;;23.90;99.90;;;;;;5032113;28;20108;-77
2023/08/03 00:31:03;;;;;;;7.15;4.80;;;23.90;99.90;;;;;;5030851;28;20102;-77
2023/08/03 00:33:29;;;;;;;12.57;5.20;;;23.90;99.90;;;;;;5041649;28;20116;-78
2023/08/03 00:35:56;;;;;;;8.85;5.47;;;23.90;99.90;;;;;;5040418;28;20064;-78
2023/08/03 00:38:22;;;;;;;9.50;4.97;;;23.90;99.90;;;;;;5041408;28;20123;-78
2023/08/03 00:40:50;;;;;;;8.10;4.60;;;23.80;99.90;;;;;;5067129;28;20387;-78
2023/08/03 00:43:15;;;;;;;7.85;4.85;;;23.80;99.90;;;;;;5033427;28;20390;-78
2023/08/03 00:45:41;;;;;;;7.82;4.63;;;23.90;99.90;;;;;;5034140;28;20032;-78
2023/08/03 00:48:07;;;;;;;10.20;4.78;;;23.90;99.90;;;;;;5034186;28;20032;-78
2023/08/03 00:50:32;;;;;;;7.88;4.68;;;23.90;99.90;;;;;;5030762;28;20061;-78
2023/08/03 00:52:58;;;;;;;9.57;4.47;;;23.90;99.90;;;;;;5039694;28;20029;-78
2023/08/03 00:55:24;;;;;;;7.68;4.65;;;23.90;99.90;;;;;;5029152;28;20451;-78
2023/08/03 00:57:50;;;;;;;7.63;4.22;;;23.90;99.90;;;;;;5037572;28;20056;-77
2023/08/03 01:00:15;;;;;;;6.38;4.43;;;23.90;99.90;;;;;;5032154;28;20056;-78
2023/08/03 01:02:41;;;;;;;9.95;5.10;;;23.90;99.90;;;;;;5038201;28;20371;-78
2023/08/03 01:05:07;;;;;;;12.60;4.88;;;23.90;99.90;;;;;;5040395;28;20099;-77
2023/08/03 01:07:34;;;;;;;10.50;4.22;;;24.00;99.90;;;;;;5035306;28;20026;-78
2023/08/03 01:10:00;;;;;;;9.02;5.32;;;24.00;99.90;;;;;;5032969;28;20122;-78
2023/08/03 01:12:27;;;;;;;8.70;4.90;;;24.00;99.90;;;;;;5038415;28;20067;-79
2023/08/03 01:14:52;;;;;;;8.93;5.35;;;24.00;99.90;;;;;;5036585;28;20044;-78
2023/08/03 01:17:19;;;;;;;9.77;4.82;;;24.00;99.90;;;;;;5033708;28;20038;-77
2023/08/03 01:19:44;;;;;;;8.18;4.43;;;23.90;99.90;;;;;;5035463;28;23522;-77
2023/08/03 01:22:13;;;;;;;9.75;5.13;;;23.90;99.90;;;;;;5035950;28;20030;-78
2023/08/03 01:24:38;;;;;;;10.85;4.95;;;23.90;99.90;;;;;;5040233;28;20047;-78
2023/08/03 01:27:04;;;;;;;6.93;4.82;;;23.90;99.90;;;;;;5038422;28;20479;-78
2023/08/03 01:29:30;;;;;;;9.38;4.88;;;23.90;99.90;;;;;;5040844;28;20076;-78
2023/08/03 01:31:58;;;;;;;8.18;4.72;;;23.90;99.90;;;;;;5039204;28;20034;-78
2023/08/03 01:34:27;;;;;;;13.00;4.72;;;23.90;99.90;;;;;;5038100;28;20029;-77
2023/08/03 01:36:54;;;;;;;7.40;5.05;;;23.80;99.90;;;;;;5034419;28;20072;-77
2023/08/03 01:39:24;;;;;;;7.88;4.55;;;23.90;99.90;;;;;;5041778;28;20040;-78
2023/08/03 01:41:50;;;;;;;10.13;4.63;;;23.90;99.90;;;;;;5037311;28;20029;-78
2023/08/03 01:44:27;;;;;;;8.80;5.30;;;23.90;99.90;;;;;;5036387;28;20037;-77
2023/08/03 01:46:59;;;;;;;9.68;5.15;;;23.90;99.90;;;;;;5036805;28;20135;-78
2023/08/03 01:49:28;;;;;;;8.88;5.13;;;23.90;99.90;;;;;;5031697;28;20021;-77
2023/08/03 01:51:54;;;;;;;7.47;5.28;;;23.90;99.90;;;;;;5039511;28;20043;-77
2023/08/03 01:54:19;;;;;;;7.97;4.30;;;23.90;99.90;;;;;;5045165;28;20020;-78
2023/08/03 01:56:45;;;;;;;12.80;6.10;;;23.90;99.90;;;;;;5038822;28;20208;-77
2023/08/03 01:59:11;;;;;;;8.13;4.57;;;23.80;99.90;;;;;;5041935;28;20039;-77
2023/08/03 02:01:38;;;;;;;14.52;5.18;;;23.90;99.90;;;;;;5038804;28;20024;-78
2023/08/03 02:04:04;;;;;;;10.23;5.07;;;23.80;99.90;;;;;;5047522;28;20375;-78
2023/08/03 02:06:29;;;;;;;8.80;4.78;;;23.90;99.90;;;;;;5036671;28;20033;-78
2023/08/03 02:08:55;;;;;;;8.35;5.00;;;23.80;99.90;;;;;;5037898;28;20040;-78
2023/08/03 02:11:21;;;;;;;8.35;4.75;;;23.90;99.90;;;;;;5041642;28;20052;-78
2023/08/03 02:13:46;;;;;;;8.02;4.60;;;23.90;99.90;;;;;;5039950;28;20040;-78
2023/08/03 02:16:12;;;;;;;9.30;4.88;;;23.90;99.90;;;;;;5037539;28;20029;-78
2023/08/03 02:18:41;;;;;;;8.52;4.63;;;23.90;99.90;;;;;;5040532;28;20029;-78
2023/08/03 02:21:07;;;;;;;9.82;4.90;;;23.90;99.90;;;;;;5039019;28;20029;-77
2023/08/03 02:23:33;;;;;;;9.57;4.45;;;23.90;99.90;;;;;;5033583;28;20083;-78
2023/08/03 02:26:02;;;;;;;7.13;4.28;;;23.90;99.90;;;;;;5037504;28;20029;-78
2023/08/03 02:28:32;;;;;;;10.48;4.55;;;23.80;99.90;;;;;;5038738;28;20041;-78
2023/08/03 02:30:58;;;;;;;6.88;3.95;;;23.80;99.90;;;;;;5038330;28;20037;-77
2023/08/03 02:33:24;;;;;;;8.68;4.55;;;23.80;99.90;;;;;;5035186;28;20035;-78
2023/08/03 02:35:49;;;;;;;6.85;3.63;;;23.90;99.90;;;;;;5041566;28;20495;-77
2023/08/03 02:38:15;;;;;;;7.25;4.65;;;24.00;99.90;;;;;;5039615;28;20021;-78
2023/08/03 02:40:41;;;;;;;9.63;4.50;;;24.00;99.90;;;;;;5034641;28;20033;-78
2023/08/03 02:43:06;;;;;;;9.15;4.20;;;24.00;99.90;;;;;;5041367;28;20375;-77
2023/08/03 02:45:32;;;;;;;9.60;4.38;;;23.80;99.90;;;;;;5034855;28;20086;-78
2023/08/03 02:47:57;;;;;;;9.32;4.10;;;23.90;99.90;;;;;;5046784;28;20029;-78
2023/08/03 02:50:23;;;;;;;8.40;4.55;;;24.00;99.90;;;;;;5040173;28;20029;-77
2023/08/03 02:52:49;;;;;;;8.98;4.30;;;23.90;99.90;;;;;;5036593;28;20026;-78
2023/08/03 02:55:16;;;;;;;9.80;3.88;;;23.90;99.90;;;;;;5034016;28;20175;-78
2023/08/03 02:57:42;;;;;;;10.77;4.65;;;23.90;99.90;;;;;;5039603;28;20391;-78
2023/08/03 03:00:09;;;;;;;7.43;4.10;;;23.90;99.90;;;;;;5035240;28;20477;-76
2023/08/03 03:02:36;;;;;;;10.35;4.65;;;23.90;99.90;;;;;;5040566;28;20040;-77
2023/08/03 03:05:02;;;;;;;8.38;4.25;;;23.80;99.90;;;;;;5037998;28;20048;-77
2023/08/03 03:07:31;;;;;;;8.73;4.47;;;23.90;99.90;;;;;;5030878;28;20030;-77
2023/08/03 03:09:57;;;;;;;8.95;4.07;;;23.90;99.90;;;;;;5028129;28;20033;-77
2023/08/03 03:12:23;;;;;;;8.45;4.72;;;23.80;99.90;;;;;;5027398;28;20541;-76
2023/08/03 03:14:49;;;;;;;7.53;4.28;;;23.70;99.90;;;;;;5036196;28;20040;-77
2023/08/03 03:17:15;;;;;;;8.05;4.50;;;23.60;99.90;;;;;;5029569;28;20399;-77
2023/08/03 03:19:40;;;;;;;12.70;4.30;;;23.60;99.90;;;;;;5030010;28;20386;-77
2023/08/03 03:22:07;;;;;;;9.05;4.30;;;23.70;99.90;;;;;;5029652;28;20022;-78
2023/08/03 03:24:33;;;;;;;7.80;3.70;;;23.70;99.90;;;;;;5034197;28;20092;-77
2023/08/03 03:26:58;;;;;;;12.93;4.90;;;23.60;99.90;;;;;;5034727;28;20033;-79
2023/08/03 03:29:24;;;;;;;8.13;4.15;;;23.60;99.90;;;;;;5030928;28;20029;-78
2023/08/03 03:31:50;;;;;;;7.05;4.32;;;23.60;99.90;;;;;;5035756;28;20232;-77
2023/08/03 03:34:16;;;;;;;10.75;5.07;;;23.60;99.90;;;;;;5033695;28;20540;-78
2023/08/03 03:36:41;;;;;;;11.18;4.93;;;23.60;99.90;;;;;;5037092;28;20055;-79
2023/08/03 03:39:07;;;;;;;10.38;4.68;;;23.50;99.90;;;;;;5029478;28;20028;-77
2023/08/03 03:41:32;;;;;;;7.55;4.55;;;23.50;99.90;;;;;;5030044;28;20033;-77
2023/08/03 03:43:58;;;;;;;10.68;4.55;;;23.40;99.90;;;;;;5031561;28;20597;-84
2023/08/03 03:46:24;;;;;;;9.15;4.18;;;23.40;99.90;;;;;;5034714;28;20078;-76
2023/08/03 03:48:49;;;;;;;9.15;4.43;;;23.40;99.90;;;;;;5032011;28;20053;-76
2023/08/03 03:51:17;;;;;;;12.38;4.63;;;23.20;99.90;;;;;;5033567;28;20129;-78
2023/08/03 03:53:43;;;;;;;13.20;5.28;;;23.20;99.90;;;;;;5035013;28;20040;-77
2023/08/03 03:56:09;;;;;;;9.20;4.55;;;23.20;99.90;;;;;;5033787;28;20482;-78
2023/08/03 03:58:34;;;;;;;11.20;4.75;;;23.20;99.90;;;;;;5028428;28;20652;-77
2023/08/03 04:01:00;;;;;;;9.18;4.30;;;23.00;99.90;;;;;;5029483;28;20022;-77
2023/08/03 04:03:26;;;;;;;10.02;4.68;;;23.00;99.90;;;;;;5033672;28;20593;-77
2023/08/03 04:05:52;;;;;;;7.57;4.20;;;22.90;99.90;;;;;;5040670;28;20036;-78
2023/08/03 04:08:18;;;;;;;8.70;4.30;;;22.70;99.90;;;;;;5030544;28;20112;-77
2023/08/03 04:10:44;;;;;;;9.45;4.25;;;22.60;99.90;;;;;;5027935;28;20116;-77
2023/08/03 04:13:09;;;;;;;9.80;4.63;;;22.60;99.90;;;;;;5030291;28;20037;-79
2023/08/03 04:15:35;;;;;;;5.97;4.13;;;22.60;99.90;;;;;;5035133;28;20048;-78
2023/08/03 04:18:01;;;;;;;8.52;5.30;;;22.70;99.90;;;;;;5033921;28;20033;-77
2023/08/03 04:20:26;;;;;;;10.27;5.35;;;22.70;99.90;;;;;;5033149;28;20107;-76
2023/08/03 04:22:52;;;;;;;8.57;3.97;;;22.70;99.90;;;;;;5033344;28;20041;-77
2023/08/03 04:25:18;;;;;;;9.57;4.57;;;22.80;99.90;;;;;;5038705;28;20055;-76
2023/08/03 04:27:43;;;;;;;7.45;4.13;;;23.10;99.90;;;;;;5036225;28;20518;-77
2023/08/03 04:30:11;;;;;;;9.80;4.32;;;23.30;99.90;;;;;;5029195;28;20091;-79
2023/08/03 04:32:37;;;;;;;12.23;4.82;;;23.20;99.90;;;;;;5040303;28;20027;-77
2023/08/03 04:35:03;;;;;;;8.48;4.22;;;22.90;99.90;;;;;;5029773;28;20045;-76
2023/08/03 04:37:29;;;;;;;9.85;4.50;;;22.80;99.90;;;;;;5034832;28;20108;-76
2023/08/03 04:39:55;;;;;;;10.25;4.80;;;22.80;99.90;;;;;;5026518;28;22257;-77
2023/08/03 04:42:21;;;;;;;12.57;4.97;;;22.70;99.90;;;;;;5026547;28;20025;-78
2023/08/03 04:44:47;;;;;;;9.73;4.50;;;22.80;99.90;;;;;;5029812;28;20601;-77
2023/08/03 04:47:13;;;;;;;10.23;4.60;;;22.80;99.90;;;;;;5033284;28;20022;-84
2023/08/03 04:49:39;;;;;;;12.20;4.65;;;22.70;99.90;;;;;;5035153;28;20040;-77
2023/08/03 04:52:05;;;;;;;7.57;4.47;;;22.70;99.90;;;;;;5034748;28;20032;-77
2023/08/03 04:54:31;;;;;;;16.02;5.32;;;22.60;99.90;;;;;;5034805;28;20041;-77
2023/08/03 04:56:56;;;;;;;9.98;4.47;;;22.70;99.90;;;;;;5029141;28;20034;-79
2023/08/03 04:59:22;;;;;;;9.25;4.20;;;22.70;99.90;;;;;;5035333;28;20402;-79
2023/08/03 05:01:47;;;;;;;8.40;4.68;;;22.50;99.90;;;;;;5030593;28;20053;-78
2023/08/03 05:04:13;;;;;;;8.40;4.22;;;22.70;99.90;;;;;;5033666;28;20025;-78
2023/08/03 05:06:39;;;;;;;6.43;4.18;;;22.80;99.90;;;;;;5038467;28;20112;-78
2023/08/03 05:09:04;;;;;;;9.43;5.20;;;22.90;99.90;;;;;;5027349;28;20497;-78
2023/08/03 05:11:30;;;;;;;10.27;4.63;;;23.00;99.90;;;;;;5028374;28;20041;-79
2023/08/03 05:13:56;;;;;;;6.55;4.47;;;22.90;99.90;;;;;;5047341;28;20032;-78
2023/08/03 05:16:26;;;;;;;7.18;4.47;;;22.90;99.90;;;;;;5038705;28;20040;-78
2023/08/03 05:18:52;;;;;;;8.40;4.25;;;22.80;99.90;;;;;;5042204;28;20531;-78
2023/08/03 05:21:18;;;;;;;9.73;4.07;;;22.90;99.90;;;;;;5034700;28;20027;-78
2023/08/03 05:23:45;;;;;;;9.40;4.43;;;23.10;99.90;;;;;;5037071;28;20445;-77
2023/08/03 05:26:11;;;;;;;9.50;4.53;;;23.20;99.90;;;;;;5035991;28;20088;-79
2023/08/03 05:28:37;;;;;;;10.13;4.28;;;23.30;99.90;;;;;;5037415;28;20051;-77
2023/08/03 05:31:04;;;;;;;10.65;4.43;;;23.30;99.90;;;;;;5037574;28;20033;-79
2023/08/03 05:33:30;;;;;;;7.10;3.83;;;23.30;99.90;;;;;;5044725;28;20116;-79
2023/08/03 05:35:56;;;;;;;10.93;4.63;;;23.30;99.90;;;;;;5032068;28;20419;-78
2023/08/03 05:38:22;;;;;;;7.28;4.00;;;23.40;99.90;;;;;;5035804;28;20075;-76
2023/08/03 05:40:47;;;;;;;7.65;3.97;;;23.50;99.90;;;;;;5044869;28;20616;-78
2023/08/03 05:43:14;;;;;;;15.65;3.92;;;23.50;99.90;;;;;;5035658;28;20030;-77
2023/08/03 05:45:50;;;;;;;9.25;4.25;;;23.40;99.90;;;;;;5033523;28;20073;-77
2023/08/03 05:48:16;;;;;;;9.30;4.65;;;23.60;99.90;;;;;;5028764;28;20052;-77
2023/08/03 05:50:44;;;;;;;10.18;4.57;;;23.70;99.90;;;;;;5037440;28;20034;-79
2023/08/03 05:53:10;;;;;;;7.00;3.47;;;23.70;99.90;;;;;;5033331;28;20368;-79
2023/08/03 05:55:37;;;;;;;10.95;4.18;;;23.70;99.90;;;;;;5032683;28;20033;-78
2023/08/03 05:58:04;;;;;;;7.75;3.72;;;23.70;99.90;;;;;;5039814;28;20461;-80
2023/08/03 06:00:30;;;;;;;7.97;3.95;;;23.80;99.90;;;;;;5030445;28;20068;-79
2023/08/03 06:02:59;;;;;;;9.23;4.40;;;23.70;99.90;;;;;;5026911;28;20049;-77
2023/08/03 06:05:46;;;;;;;10.35;4.80;;;23.60;99.90;;;;;;5041199;28;20057;-84
2023/08/03 06:08:15;;;;;;;7.97;4.50;;;23.40;99.90;;;;;;5031793;28;20039;-78
2023/08/03 06:10:41;;;;;;;10.98;4.72;;;23.40;99.90;;;;;;5031833;28;20029;-79
2023/08/03 06:13:12;;;;;;;14.25;4.35;;;23.30;99.90;;;;;;5038718;28;20039;-80
2023/08/03 06:15:39;;;;;;;11.10;4.38;;;23.30;99.90;;;;;;5040346;28;20072;-76
2023/08/03 06:18:08;;;;;;;11.40;4.47;;;23.20;99.90;;;;;;5035899;28;20040;-80
2023/08/03 06:20:34;;;;;;;9.95;3.85;;;23.30;99.90;;;;;;5040850;28;20029;-78
2023/08/03 06:23:00;;;;;;;8.25;4.03;;;23.50;99.90;;;;;;5037237;28;20056;-77
2023/08/03 06:25:27;;;;;;;8.70;4.20;;;23.30;99.90;;;;;;5032440;28;20067;-81
2023/08/03 06:27:52;;;;;;;7.50;4.18;;;23.30;99.90;;;;;;5037953;28;20514;-79
2023/08/03 06:30:18;;;;;;;8.45;4.20;;;23.40;99.90;;;;;;5040202;28;20112;-80
2023/08/03 06:32:44;;;;;;;7.68;3.90;;;23.40;99.90;;;;;;5032462;28;20048;-81
2023/08/03 06:35:25;;;;;;;8.07;3.88;;;23.40;99.90;;;;;;5033729;28;20498;-79
2023/08/03 06:37:53;;;;;;;7.78;3.65;;;23.50;99.90;;;;;;5034106;28;20037;-79
2023/08/03 06:40:19;;;;;;;12.90;4.53;;;23.50;99.90;;;;;;5035585;28;20576;-80
2023/08/03 06:42:57;;;;;;;10.30;4.35;;;23.40;99.90;;;;;;5028899;28;20495;-82
2023/08/03 06:45:23;;;;;;;7.40;4.43;;;23.50;99.90;;;;;;5032634;28;20470;-79
2023/08/03 06:47:49;;;;;;;11.98;4.00;;;23.60;99.90;;;;;;5030509;28;20041;-79
2023/08/03 06:50:15;;;;;;;9.02;4.65;;;23.70;99.90;;;;;;5030115;28;20033;-81
2023/08/03 06:52:41;;;;;;;6.43;3.83;;;23.50;99.90;;;;;;5034065;28;20034;-81
2023/08/03 06:55:07;;;;;;;8.65;4.30;;;23.50;99.90;;;;;;5031198;28;20029;-80
2023/08/03 06:57:32;;;;;;;9.20;3.95;;;23.50;99.90;;;;;;5037475;28;20064;-79
2023/08/03 06:59:58;;;;;;;11.05;4.47;;;23.30;99.90;;;;;;5034502;28;20025;-78
2023/08/03 07:02:24;;;;;;;9.90;4.68;;;23.30;99.90;;;;;;5037352;28;20537;-79
2023/08/03 07:04:50;;;;;;;10.73;5.10;;;23.70;99.90;;;;;;5035095;28;20032;-80
2023/08/03 07:07:16;;;;;;;8.15;4.10;;;24.00;99.90;;;;;;5036032;28;20394;-78
2023/08/03 07:09:43;;;;;;;8.65;4.85;;;24.10;99.90;;;;;;5033326;28;20120;-79
2023/08/03 07:12:11;;;;;;;11.50;5.10;;;24.30;99.90;;;;;;5034438;28;20032;-80
2023/08/03 07:14:37;;;;;;;10.32;4.85;;;25.00;99.90;;;;;;5039285;28;20037;-78
2023/08/03 07:17:03;;;;;;;8.65;5.18;;;25.00;99.90;;;;;;5036278;28;20048;-79
2023/08/03 07:19:28;;;;;;;10.35;5.10;;;25.60;99.90;;;;;;5030139;28;20022;-79
2023/08/03 07:21:54;;;;;;;10.77;5.03;;;25.50;99.90;;;;;;5039747;28;20044;-78
2023/08/03 07:24:20;;;;;;;7.07;4.78;;;25.40;99.90;;;;;;5037795;28;20482;-79
2023/08/03 07:26:48;;;;;;;9.00;5.10;;;27.20;99.90;;;;;;5037573;28;20029;-79
2023/08/03 07:29:14;;;;;;;9.70;4.88;;;28.80;99.90;;;;;;5037685;28;20014;-79
2023/08/03 07:31:39;;;;;;;7.78;4.32;;;29.10;99.90;;;;;;5035533;28;20123;-81
2023/08/03 07:34:05;;;;;;;6.63;3.95;;;29.90;99.90;;;;;;5042248;28;20040;-79
2023/08/03 07:36:31;;;;;;;11.23;4.55;;;30.10;99.50;;;;;;5038411;28;20041;-77
2023/08/03 07:38:56;;;;;;;7.55;4.30;;;31.20;97.00;;;;;;5034624;28;20032;-79
2023/08/03 07:41:22;;;;;;;7.63;4.20;;;28.60;99.00;;;;;;5041649;28;20146;-79
2023/08/03 07:43:50;;;;;;;14.10;4.95;;;27.10;99.90;;;;;;5039653;28;20041;-78
2023/08/03 07:46:16;;;;;;;9.35;4.43;;;26.40;99.90;;;;;;5036795;28;20104;-78
2023/08/03 07:48:41;;;;;;;10.73;4.00;;;26.70;99.90;;;;;;5035327;28;20037;-78
2023/08/03 07:51:15;;;;;;;9.48;4.53;;;26.70;99.90;;;;;;5041538;28;20028;-78
2023/08/03 07:53:41;;;;;;;12.88;5.45;;;26.10;99.90;;;;;;5038670;28;20039;-79
2023/08/03 07:56:22;;;;;;;9.05;4.63;;;28.00;99.90;;;;;;5038948;28;20033;-78
2023/08/03 07:58:49;;;;;;;12.50;4.25;;;28.00;99.90;;;;;;5050435;28;20475;-79
2023/08/03 08:01:16;;;;;;;7.78;4.15;;;28.60;99.30;;;;;;5037899;28;20047;-79
2023/08/03 08:03:42;;;;;;;9.35;4.35;;;27.60;99.90;;;;;;5036964;28;20514;-79
2023/08/03 08:06:10;;;;;;;8.90;3.97;;;27.00;99.90;;;;;;5040656;28;20025;-83
2023/08/03 08:08:37;;;;;;;19.10;6.57;;;26.70;99.90;;;;;;5033459;28;20119;-79
2023/08/03 08:11:03;;;;;;;8.68;4.80;;;26.50;99.90;;;;;;5041873;28;20021;-79
2023/08/03 08:13:29;;;;;;;12.50;4.40;;;26.50;99.90;;;;;;5035295;28;20032;-79
2023/08/03 08:16:03;;;;;;;11.90;4.85;;;26.40;99.90;;;;;;5039137;28;20033;-79
2023/08/03 08:18:30;;;;;;;8.57;4.57;;;26.50;99.90;;;;;;5038786;28;20120;-79
2023/08/03 08:21:01;;;;;;;10.73;4.60;;;28.80;99.90;;;;;;5037053;28;20021;-84
2023/08/03 08:23:27;;;;;;;6.75;4.28;;;29.70;99.00;;;;;;5038910;28;20124;-79
2023/08/03 08:25:53;;;;;;;11.63;4.57;;;29.50;98.60;;;;;;5034770;28;20138;-79
2023/08/03 08:28:18;;;;;;;9.85;4.35;;;28.80;99.50;;;;;;5038709;28;20037;-80
2023/08/03 08:30:45;;;;;;;7.93;3.83;;;27.40;99.90;;;;;;5036515;28;20098;-79
2023/08/03 08:33:11;;;;;;;8.75;4.00;;;27.70;99.90;;;;;;5040274;28;20021;-81
2023/08/03 08:35:37;;;;;;;9.80;4.28;;;28.00;99.90;;;;;;5029379;28;20050;-79
2023/08/03 08:38:05;;;;;;;10.23;4.80;;;27.30;99.90;;;;;;5034294;28;20033;-79
2023/08/03 08:40:35;;;;;;;9.75;4.10;;;27.50;99.90;;;;;;5034751;28;20167;-79
2023/08/03 08:43:01;;;;;;;8.55;4.95;;;28.00;99.90;;;;;;5035641;28;20639;-78
2023/08/03 08:45:27;;;;;;;10.38;3.90;;;27.90;99.90;;;;;;5038812;28;20025;-79
2023/08/03 08:47:53;;;;;;;8.90;4.38;;;27.60;99.90;;;;;;5040895;28;20502;-80
2023/08/03 08:50:18;;;;;;;9.52;4.57;;;27.50;99.90;;;;;;5040097;28;21133;-80
2023/08/03 08:52:44;;;;;;;9.75;4.03;;;27.40;99.90;;;;;;5031068;28;20046;-78
2023/08/03 08:55:15;;;;;;;12.50;5.22;;;27.30;99.90;;;;;;5034478;28;20032;-80
2023/08/03 08:57:40;;;;;;;13.15;4.80;;;27.30;99.90;;;;;;5030105;28;20098;-83
2023/08/03 09:00:07;;;;;;;12.15;5.32;;;27.60;99.90;;;;;;5035865;28;20437;-80
2023/08/03 09:02:34;;;;;;;10.32;4.45;;;27.50;99.90;;;;;;5032062;28;20391;-78
2023/08/03 09:05:17;;;;;;;9.50;4.10;;;27.30;99.90;;;;;;5026276;28;20036;-80
2023/08/03 09:07:43;;;;;;;;;;;27.80;99.90;;;;;;5032436;28;20497;-80
2023/08/03 09:10:10;;;;;;;9.48;3.95;;;28.10;99.90;;;;;;5031290;28;19996;-80
2023/08/03 09:12:38;;;;;;;11.15;5.30;;;28.20;99.90;;;;;;5027810;28;20368;-79
2023/08/03 09:15:04;;;;;;;7.20;4.30;;;28.30;99.30;;;;;;5027722;28;20029;-79
2023/08/03 09:17:31;;;;;;;13.57;4.85;;;28.50;98.80;;;;;;5030417;28;20108;-80
2023/08/03 09:19:57;;;;;;;9.80;4.22;;;28.60;99.50;;;;;;5036940;28;20037;-79
2023/08/03 09:22:25;;;;;;;8.82;4.20;;;28.80;99.10;;;;;;5029442;28;20120;-80
2023/08/03 09:25:06;;;;;;;9.50;4.07;;;29.20;98.40;;;;;;5034108;28;20120;-78
2023/08/03 09:27:33;;;;;;;10.73;4.55;;;29.10;97.90;;;;;;5033349;28;20036;-80
2023/08/03 09:30:03;;;;;;;11.68;4.43;;;29.10;98.70;;;;;;5037197;28;20021;-78
2023/08/03 09:32:34;;;;;;;9.65;4.50;;;29.10;98.70;;;;;;5039432;28;20120;-79
2023/08/03 09:35:01;;;;;;;7.65;4.05;;;29.60;98.60;;;;;;5032744;28;20083;-79
2023/08/03 09:37:34;;;;;;;10.27;4.13;;;29.80;98.00;;;;;;5040636;28;20041;-79
2023/08/03 09:40:03;;;;;;;8.88;4.22;;;29.80;97.70;;;;;;5034369;28;20025;-79
2023/08/03 09:42:31;;;;;;;9.45;4.20;;;29.90;97.50;;;;;;5029124;28;20119;-79
2023/08/03 09:45:00;;;;;;;7.68;3.90;;;29.70;97.60;;;;;;5035244;28;20023;-78
2023/08/03 09:47:26;;;;;;;9.63;4.20;;;29.70;97.20;;;;;;5038908;28;20021;-79
2023/08/03 09:49:52;;;;;;;9.48;4.75;;;29.70;97.70;;;;;;5034453;28;20644;-78
2023/08/03 09:52:22;;;;;;;7.57;3.97;;;30.10;97.60;;;;;;5040584;28;20029;-79
2023/08/03 09:55:05;;;;;;;11.35;4.57;;;29.90;96.90;;;;;;5042351;28;20025;-78
2023/08/03 09:57:38;;;;;;;7.07;4.13;;;30.20;97.30;;;;;;5039858;28;20022;-79
2023/08/03 10:00:08;;;;;;;9.35;3.88;;;29.90;96.80;;;;;;5037214;28;20040;-80
2023/08/03 10:02:48;;;;;;;9.48;4.65;;;29.60;97.10;;;;;;5037345;28;20116;-79
2023/08/03 10:05:19;;;;;;;11.07;3.97;;;29.90;97.70;;;;;;5039411;28;20386;-79
2023/08/03 10:08:02;;;;;;;10.70;4.90;;;30.10;96.70;;;;;;5039773;28;20047;-79
2023/08/03 10:10:29;;;;;;;;;;;30.00;96.80;;;;;;5036979;28;20029;-79
2023/08/03 10:13:01;;;;;;;8.75;3.92;;;29.90;97.50;;;;;;5037865;28;20343;-79
2023/08/03 10:15:27;;;;;;;9.20;4.25;;;29.90;96.60;;;;;;5030461;28;20045;-79
2023/08/03 10:17:54;;;;;;;10.43;5.45;;;30.30;97.80;;;;;;5036408;28;20082;-79
2023/08/03 10:20:20;;;;;;;9.43;3.97;;;30.40;97.60;;;;;;5039512;28;20506;-80
2023/08/03 10:23:18;;;;;;;11.68;4.50;;;30.60;97.00;;;;;;5036258;28;20478;-80
2023/08/03 10:25:54;;;;;;;12.18;4.00;;;30.80;96.90;;;;;;5034588;28;20108;-80
2023/08/03 10:28:21;;;;;;;9.95;3.70;;;30.50;96.50;;;;;;5041037;28;20038;-80
2023/08/03 10:31:18;;;;;;;8.05;4.18;;;30.10;97.10;;;;;;5039136;28;20017;-78
2023/08/03 10:33:46;;;;;;;13.25;4.53;;;30.80;97.50;;;;;;5036723;28;20037;-79
2023/08/03 10:36:27;;;;;;;10.55;4.70;;;31.00;96.50;;;;;;5036263;28;20053;-80
2023/08/03 10:38:54;;;;;;;7.50;3.83;;;31.40;96.20;;;;;;5038462;28;20108;-79
2023/08/03 10:41:24;;;;;;;9.63;3.60;;;31.50;96.70;;;;;;5033560;28;20529;-80
2023/08/03 10:44:05;;;;;;;9.02;4.78;;;31.60;95.60;;;;;;5036212;28;20090;-80
2023/08/03 10:46:37;;;;;;;9.15;3.80;;;31.40;96.30;;;;;;5028576;28;20033;-80
2023/08/03 10:49:18;;;;;;;10.73;4.15;;;31.30;96.40;;;;;;5030363;28;20067;-80
2023/08/03 10:51:48;;;;;;;10.20;4.00;;;31.70;95.90;;;;;;5033845;28;20029;-80
2023/08/03 10:54:15;;;;;;;7.35;4.10;;;31.20;95.40;;;;;;5032481;28;20030;-80
2023/08/03 10:57:00;;;;;;;10.52;4.40;;;31.10;95.60;;;;;;5033691;28;20499;-80
2023/08/03 10:59:25;;;;;;;6.40;3.80;;;30.90;96.50;;;;;;5034676;28;20029;-79
2023/08/03 11:01:51;;;;;;;6.00;3.38;;;31.30;95.80;;;;;;5032810;28;20033;-79
2023/08/03 11:04:17;;;;;;;7.55;3.60;;;30.90;95.80;;;;;;5032458;28;20021;-79
2023/08/03 11:06:43;;;;;;;6.43;4.00;;;31.10;95.30;;;;;;5034303;28;20040;-80
2023/08/03 11:09:09;;;;;;;15.65;3.90;;;31.40;95.70;;;;;;5030043;28;20434;-79
2023/08/03 11:11:34;;;;;;;11.70;3.63;;;31.60;95.50;;;;;;5038358;28;20065;-80
2023/08/03 11:14:01;;;;;;;7.65;4.30;;;31.00;95.10;;;;;;5040813;28;20513;-80
2023/08/03 11:16:27;;;;;;;9.35;3.95;;;31.20;95.70;;;;;;5036369;28;20048;-80
2023/08/03 11:18:53;;;;;;;9.43;4.03;;;31.60;95.70;;;;;;5038476;28;20091;-80
2023/08/03 11:21:18;;;;;;;8.63;4.28;;;31.50;94.90;;;;;;5031500;28;20033;-78
2023/08/03 11:23:44;;;;;;;7.47;3.88;;;31.40;94.80;;;;;;5032023;28;20120;-78
2023/08/03 11:26:11;;;;;;;6.10;2.92;;;31.30;94.80;;;;;;5031607;28;20049;-77
2023/08/03 11:28:43;;;;;;;7.55;3.65;;;31.40;95.30;;;;;;5030633;28;20064;-80
2023/08/03 11:31:20;;;;;;;6.00;3.30;;;31.30;95.60;;;;;;5032223;28;20029;-79
2023/08/03 11:33:53;;;;;;;9.90;3.20;;;30.70;94.60;;;;;;5024632;28;20620;-79
2023/08/03 11:36:21;;;;;;;6.47;2.95;;;30.60;95.40;;;;;;5035999;28;20049;-79
2023/08/03 11:38:47;;;;;;;7.32;3.70;;;31.00;95.10;;;;;;5026979;28;20079;-79
2023/08/03 11:41:15;;;;;;;7.60;3.78;;;31.30;95.00;;;;;;5027273;28;20080;-79
2023/08/03 11:43:41;;;;;;;9.05;3.50;;;31.00;94.60;;;;;;5032842;28;20799;-78
2023/08/03 11:46:07;;;;;;;7.22;3.65;;;30.80;94.90;;;;;;5031546;28;20025;-76
2023/08/03 11:48:33;;;;;;;4.95;2.83;;;30.70;95.40;;;;;;5027259;28;20048;-77
2023/08/03 11:50:59;;;;;;;6.10;3.25;;;30.20;95.30;;;;;;5031980;28;21049;-78
2023/08/03 11:53:31;;;;;;;4.65;3.08;;;30.50;95.20;;;;;;5030265;28;20037;-78
2023/08/03 11:56:00;;;;;;;7.33;3.20;;;30.50;95.10;;;;;;5032184;28;20104;-77
2023/08/03 11:58:27;;;;;;;7.07;3.67;;;30.30;96.10;;;;;;5028216;28;20025;-77
2023/08/03 12:01:04;;;;;;;7.72;3.35;;;30.20;95.10;;;;;;5035852;28;20048;-77
2023/08/03 12:03:34;;;;;;;6.32;2.75;;;30.20;96.00;;;;;;5028614;28;20034;-78
2023/08/03 12:06:05;;;;;;;6.05;3.05;;;30.10;96.30;;;;;;5029554;28;20063;-79
2023/08/03 12:08:43;;;;;;;6.93;2.75;;;30.10;95.10;;;;;;5033029;28;20697;-78
2023/08/03 12:11:09;;;;;;;7.50;2.80;;;30.60;95.60;;;;;;5033683;28;20032;-79
2023/08/03 12:13:36;;;;;;;5.43;2.80;;;30.20;95.00;;;;;;5030713;28;20040;-79
2023/08/03 12:16:02;;;;;;;5.63;3.15;;;30.60;95.60;;;;;;5028852;28;20056;-78
2023/08/03 12:18:28;;;;;;;6.80;3.10;;;30.80;95.80;;;;;;5025174;28;20064;-76
2023/08/03 12:20:54;;;;;;;6.13;3.63;;;30.50;94.80;;;;;;5031264;28;20029;-77
2023/08/03 12:23:21;;;;;;;9.05;2.70;;;30.40;94.90;;;;;;5028566;28;20543;-78
2023/08/03 12:25:46;;;;;;;8.75;3.70;;;30.50;95.20;;;;;;5034953;28;20390;-78
2023/08/03 12:28:13;;;;;;;7.30;3.13;;;30.60;96.20;;;;;;5030363;28;20040;-77
2023/08/03 12:30:39;;;;;;;5.60;2.63;;;30.40;95.30;;;;;;5033449;28;20036;-76
2023/08/03 12:33:08;;;;;;;6.88;3.15;;;30.60;96.00;;;;;;5034124;28;20025;-77
2023/08/03 12:35:35;;;;;;;8.18;3.10;;;30.50;94.80;;;;;;5035623;28;20132;-78
2023/08/03 12:38:01;;;;;;;7.03;3.20;;;30.50;95.50;;;;;;5030964;28;20025;-78
2023/08/03 12:40:27;;;;;;;5.57;2.95;;;30.80;96.20;;;;;;5030173;28;20028;-77
2023/08/03 12:42:53;;;;;;;6.70;3.25;;;30.90;94.80;;;;;;5034022;28;20049;-78
2023/08/03 12:45:19;;;;;;;6.30;3.22;;;30.90;95.00;;;;;;5035376;28;20055;-77
2023/08/03 12:47:45;;;;;;;4.72;2.70;;;31.20;95.80;;;;;;5036119;28;20106;-80